Contact Us:
Email: info@sawbill.com
Phone: (218)663-7150
Fax: (218)663-7980
Mail: 4620 Sawbill Trail
Box 2129
Tofte, MN 55615


Powered by
Movable Type 3.15
 
Sawbill Weather History Archives: June 2003
Current Sawbill Weather History | « May 2003 | July 2003 »


Date

High
Temperature

Low
Temperature

Barometric
Pressure

Relative
Humidity 7AM

9 AM
Temperature

Moisture

Snow

06/30/03 83 55 30.10 84% 60 0  
06/29/03 70 51 30.13 91% 55 Trace  
06/28/03 63 46 29.95 87% 51 .10"  
06/27/03 63 37 29.95 86% 46 0  
06/26/03 59 47 29.80 83% 48 .12"  
06/25/03 79 52 29.67 85% 52 .45"  
06/24/03 72 63 29.84 92% 65 .35"  
06/23/03 81 60 29.90 91% 63 0  
06/22/03 84 53 29.81 90% 61 .75"  
06/21/03 80 53 29.90 76% 53 0  
06/20/03 82 42 30.03 71% 54 0  
06/19/03 73 35 30.18 76% 40 0  
06/18/03 75 45 30.22 77% 48 0  
06/17/03 86 52 29.99 90% 57 1.11"  
06/16/03 86 52 30.11 90% 63 .4"  
06/15/03 83 47 30.19 82% 52 0  
06/14/03 82 48 30.22 81% 52 0  
06/12/03 69 52 29.84 91% 58 .04"  
06/11/03 77 47 29.91 75% 51 0  
06/10/03 67 44 29.93 83% 48 0  
06/09/03 69 49 29.81 86% 50 Trace  
06/08/03 72 48 29.81 85% 50 .45"  
06/07/03 69 44 29.76 86% 48 .01"  
06/06/03 77 48 29.88 73% 57 0  
06/05/03 82 44 29.90 81% 54 0  
06/04/03 78 43 29.94 74% 44 0  
06/03/03 77 44 30.00 84% 48 0  
06/02/03 75 42 30.04 85% 47 0  
06/01/03 75 43 30.03 87% 43 0  
 


Home I Trip Planning I Rentals and Outfitting I Reservations I Campgrounds I Sawbill Store I Sawbill News I Contact

© 1997 - 2017, Sawbill Canoe Outfitters, Inc. I Privacy Policy